Time;durP1;ratioP1;P1;durP2;ratioP2;P2;SDS_P1;SDS_P2;PMS_P1;PMS_P2;Temp;Humidity;BMP_temperature;BMP_pressure;BME280_temperature;BME280_humidity;BME280_pressure;Samples;Min_cycle;Max_cycle;Signal;HPM_P1;HPM_P2
2023/06/07 00:02:45;;;;;;;7.20;5.38;;;20.60;71.70;;;;;;5071437;28;20287;-80
2023/06/07 00:05:34;;;;;;;7.38;5.45;;;20.40;69.90;;;;;;5070984;28;20586;-80
2023/06/07 00:08:23;;;;;;;12.02;5.38;;;20.50;70.50;;;;;;5071151;28;20227;-79
2023/06/07 00:11:12;;;;;;;10.02;4.93;;;20.50;71.20;;;;;;5058467;28;20232;-79
2023/06/07 00:14:02;;;;;;;9.75;5.72;;;20.60;71.00;;;;;;5054361;28;20223;-80
2023/06/07 00:16:53;;;;;;;9.27;5.30;;;20.50;70.60;;;;;;5045914;28;20651;-79
2023/06/07 00:19:43;;;;;;;8.82;4.80;;;20.50;70.10;;;;;;5073768;28;20239;-78
2023/06/07 00:22:34;;;;;;;9.52;5.07;;;20.40;69.50;;;;;;5069581;28;20221;-80
2023/06/07 00:25:23;;;;;;;7.40;5.10;;;20.40;69.40;;;;;;5063408;28;20683;-79
2023/06/07 00:28:12;;;;;;;8.88;5.13;;;20.40;71.20;;;;;;5061213;28;20280;-80
2023/06/07 00:31:01;;;;;;;8.48;4.60;;;20.40;70.10;;;;;;5065983;28;20655;-79
2023/06/07 00:33:49;;;;;;;8.02;4.60;;;20.30;69.20;;;;;;5059988;28;20787;-80
2023/06/07 00:36:40;;;;;;;9.95;4.90;;;20.40;70.80;;;;;;5087966;28;20219;-79
2023/06/07 00:39:29;;;;;;;10.60;5.22;;;20.50;72.20;;;;;;5068983;28;20245;-78
2023/06/07 00:42:18;;;;;;;10.00;5.28;;;20.30;68.30;;;;;;5080232;28;20212;-80
2023/06/07 00:45:08;;;;;;;8.35;4.65;;;20.30;68.80;;;;;;5062136;28;20216;-80
2023/06/07 00:47:57;;;;;;;6.20;4.70;;;20.40;69.60;;;;;;5036508;28;20235;-80
2023/06/07 00:50:47;;;;;;;8.55;5.05;;;20.30;69.30;;;;;;5045126;28;20709;-78
2023/06/07 00:53:38;;;;;;;9.38;5.18;;;20.20;69.00;;;;;;5064294;28;20390;-80
2023/06/07 00:56:27;;;;;;;12.63;5.15;;;20.20;69.70;;;;;;5042075;28;20217;-78
2023/06/07 00:59:18;;;;;;;7.90;5.22;;;20.20;68.00;;;;;;5073176;28;20223;-80
2023/06/07 01:02:07;;;;;;;8.00;5.47;;;20.30;69.10;;;;;;5071797;28;20318;-80
2023/06/07 01:04:57;;;;;;;7.25;4.70;;;20.10;67.70;;;;;;5066501;28;20224;-80
2023/06/07 01:07:46;;;;;;;7.57;5.25;;;20.20;70.50;;;;;;5049582;28;20695;-80
2023/06/07 01:10:37;;;;;;;6.28;5.20;;;20.20;68.80;;;;;;5055504;28;20224;-80
2023/06/07 01:13:27;;;;;;;8.57;4.88;;;20.10;67.40;;;;;;5041571;28;20221;-80
2023/06/07 01:16:16;;;;;;;10.75;5.05;;;20.10;68.90;;;;;;5070007;28;20223;-80
2023/06/07 01:19:06;;;;;;;8.25;5.00;;;20.20;67.90;;;;;;5071931;28;20236;-80
2023/06/07 01:21:59;;;;;;;9.65;5.38;;;20.20;70.10;;;;;;5064549;28;20226;-80
2023/06/07 01:24:49;;;;;;;11.27;5.00;;;20.10;67.80;;;;;;5067712;28;20242;-80
2023/06/07 01:27:40;;;;;;;6.82;5.05;;;20.10;68.30;;;;;;5037205;28;20217;-79
2023/06/07 01:30:31;;;;;;;7.22;4.57;;;20.10;66.80;;;;;;5063115;28;20232;-80
2023/06/07 01:33:20;;;;;;;9.40;4.82;;;20.10;66.90;;;;;;5050295;28;20316;-80
2023/06/07 01:36:11;;;;;;;6.93;4.80;;;20.00;67.20;;;;;;5070370;28;20814;-80
2023/06/07 01:39:02;;;;;;;8.65;4.60;;;20.10;67.60;;;;;;5076304;28;20223;-79
2023/06/07 01:41:53;;;;;;;6.97;4.40;;;20.00;67.80;;;;;;5060404;28;20234;-80
2023/06/07 01:44:44;;;;;;;6.57;4.40;;;20.10;71.20;;;;;;5040153;28;20234;-80
2023/06/07 01:47:34;;;;;;;9.50;4.78;;;20.10;67.80;;;;;;5052879;28;20236;-80
2023/06/07 01:50:23;;;;;;;9.77;5.10;;;20.10;68.50;;;;;;5052520;28;20220;-79
2023/06/07 01:53:15;;;;;;;6.97;4.93;;;19.90;67.40;;;;;;5051986;28;21189;-79
2023/06/07 01:56:10;;;;;;;8.23;4.93;;;19.90;68.90;;;;;;5080446;28;20224;-80
2023/06/07 01:59:11;;;;;;;6.70;5.10;;;19.90;69.00;;;;;;5050689;28;20227;-80
2023/06/07 02:02:08;;;;;;;7.93;5.63;;;19.70;70.60;;;;;;5067426;28;20276;-81
2023/06/07 02:05:02;;;;;;;11.82;5.32;;;19.70;69.60;;;;;;5049830;28;20228;-80
2023/06/07 02:07:53;;;;;;;7.93;5.70;;;19.60;69.70;;;;;;5061214;28;20227;-80
2023/06/07 02:10:44;;;;;;;7.18;5.35;;;19.50;70.10;;;;;;5054539;28;20243;-80
2023/06/07 02:13:36;;;;;;;9.82;5.72;;;19.40;70.40;;;;;;5082166;28;20306;-80
2023/06/07 02:16:35;;;;;;;8.18;5.35;;;19.60;70.50;;;;;;5062375;28;20587;-79
2023/06/07 02:19:24;;;;;;;9.27;5.70;;;19.50;71.10;;;;;;5074982;28;20230;-80
2023/06/07 02:22:14;;;;;;;12.13;5.65;;;19.50;71.30;;;;;;5083769;28;20230;-79
2023/06/07 02:25:02;;;;;;;10.63;5.70;;;19.60;71.20;;;;;;5081761;28;20237;-81
2023/06/07 02:27:51;;;;;;;9.23;5.60;;;19.40;70.70;;;;;;5050201;28;20307;-80
2023/06/07 02:30:41;;;;;;;17.48;5.90;;;19.40;71.00;;;;;;5057617;28;20227;-81
2023/06/07 02:33:31;;;;;;;10.77;5.78;;;19.40;71.30;;;;;;5059026;28;20216;-80
2023/06/07 02:36:22;;;;;;;11.77;5.70;;;19.30;71.50;;;;;;5072086;28;20268;-81
2023/06/07 02:39:11;;;;;;;11.35;5.97;;;19.20;71.50;;;;;;5076361;28;20312;-80
2023/06/07 02:41:59;;;;;;;11.00;6.07;;;19.20;71.80;;;;;;5082833;28;20303;-80
2023/06/07 02:44:48;;;;;;;11.13;6.63;;;19.20;72.40;;;;;;5054359;28;20225;-80
2023/06/07 02:47:37;;;;;;;13.77;5.95;;;19.20;72.20;;;;;;5065217;28;20744;-80
2023/06/07 02:50:28;;;;;;;14.05;6.72;;;19.20;72.10;;;;;;5061759;28;20223;-80
2023/06/07 02:53:18;;;;;;;11.15;6.40;;;19.20;72.70;;;;;;5068873;28;20763;-80
2023/06/07 02:56:09;;;;;;;13.95;6.28;;;19.20;72.00;;;;;;5067446;28;20276;-80
2023/06/07 02:58:58;;;;;;;11.02;6.40;;;19.30;72.40;;;;;;5062649;28;20243;-80
2023/06/07 03:01:51;;;;;;;11.90;6.05;;;19.30;72.10;;;;;;5082518;28;20975;-80
2023/06/07 03:04:40;;;;;;;11.00;6.25;;;19.30;71.70;;;;;;5065311;28;20228;-80
2023/06/07 03:07:32;;;;;;;9.50;6.25;;;19.30;71.80;;;;;;5069653;28;20226;-80
2023/06/07 03:10:21;;;;;;;10.18;5.70;;;19.30;71.60;;;;;;5066970;28;20219;-80
2023/06/07 03:13:10;;;;;;;11.23;5.53;;;19.40;70.70;;;;;;5081663;28;20243;-80
2023/06/07 03:16:02;;;;;;;14.88;6.30;;;19.40;70.20;;;;;;5057996;28;20227;-80
2023/06/07 03:18:54;;;;;;;9.52;5.70;;;19.40;70.50;;;;;;5080895;28;20224;-79
2023/06/07 03:21:46;;;;;;;10.85;6.40;;;19.50;71.30;;;;;;5048044;28;20232;-78
2023/06/07 03:24:37;;;;;;;13.45;6.18;;;19.70;71.40;;;;;;5057595;28;20235;-78
2023/06/07 03:27:27;;;;;;;12.90;6.28;;;19.60;70.60;;;;;;5040050;28;20263;-78
2023/06/07 03:30:22;;;;;;;11.00;6.50;;;19.70;70.60;;;;;;5043035;28;20219;-77
2023/06/07 03:33:12;;;;;;;9.80;5.38;;;19.60;70.60;;;;;;5063217;28;20677;-80
2023/06/07 03:36:07;;;;;;;9.50;5.90;;;19.60;70.30;;;;;;5055112;28;20351;-79
2023/06/07 03:38:58;;;;;;;13.90;6.05;;;19.60;70.20;;;;;;5066574;28;20225;-79
2023/06/07 03:41:49;;;;;;;13.63;5.65;;;19.70;70.00;;;;;;5056499;28;20231;-79
2023/06/07 03:44:43;;;;;;;9.13;5.75;;;19.80;70.90;;;;;;5072084;28;20223;-79
2023/06/07 03:47:32;;;;;;;10.50;5.47;;;19.70;69.80;;;;;;5055492;28;20220;-79
2023/06/07 03:50:22;;;;;;;14.88;5.53;;;19.70;71.40;;;;;;5064307;28;20303;-74
2023/06/07 03:53:11;;;;;;;10.98;5.43;;;19.90;70.50;;;;;;5069388;28;20610;-79
2023/06/07 03:56:02;;;;;;;12.93;6.00;;;20.00;70.00;;;;;;5082502;28;20231;-79
2023/06/07 03:58:54;;;;;;;10.38;5.50;;;19.80;70.20;;;;;;5062656;28;20266;-79
2023/06/07 04:01:45;;;;;;;10.85;5.68;;;19.90;69.90;;;;;;5054770;28;20373;-79
2023/06/07 04:04:35;;;;;;;8.70;4.95;;;19.70;69.60;;;;;;5058178;28;20228;-79
2023/06/07 04:07:24;;;;;;;11.38;5.50;;;19.90;69.60;;;;;;5063363;28;20259;-78
2023/06/07 04:10:13;;;;;;;9.93;4.82;;;19.90;70.10;;;;;;5050407;28;20781;-79
2023/06/07 04:13:02;;;;;;;8.63;4.57;;;20.10;70.00;;;;;;5053103;28;20279;-80
2023/06/07 04:15:53;;;;;;;11.02;4.75;;;20.20;69.10;;;;;;5052280;28;20768;-79
2023/06/07 04:18:42;;;;;;;8.13;4.68;;;20.10;68.90;;;;;;5059836;28;21014;-79
2023/06/07 04:21:32;;;;;;;7.07;4.82;;;20.10;69.10;;;;;;5046270;28;20884;-80
2023/06/07 04:24:23;;;;;;;11.25;5.10;;;20.20;69.80;;;;;;5058273;28;20286;-79
2023/06/07 04:27:13;;;;;;;9.85;4.88;;;20.10;68.90;;;;;;5048837;28;20697;-78
2023/06/07 04:30:04;;;;;;;7.05;4.82;;;20.20;69.10;;;;;;5034843;28;20216;-78
2023/06/07 04:33:03;;;;;;;9.00;4.78;;;20.30;69.60;;;;;;5055331;28;22707;-80
2023/06/07 04:35:52;;;;;;;10.18;5.07;;;20.30;68.80;;;;;;5053552;28;20220;-80
2023/06/07 04:38:46;;;;;;;10.13;4.78;;;20.20;68.80;;;;;;5068725;28;20687;-80
2023/06/07 04:41:52;;;;;;;7.32;4.72;;;20.40;69.30;;;;;;5067366;28;20230;-81
2023/06/07 04:44:44;;;;;;;12.90;4.43;;;20.60;68.30;;;;;;5069007;28;20231;-80
2023/06/07 04:47:40;;;;;;;9.23;4.88;;;20.50;68.90;;;;;;5059542;28;20293;-80
2023/06/07 04:50:31;;;;;;;12.20;4.78;;;20.60;68.80;;;;;;5066053;28;20219;-80
2023/06/07 04:53:20;;;;;;;9.13;5.07;;;20.70;68.70;;;;;;5060721;28;20220;-80
2023/06/07 04:56:11;;;;;;;14.35;5.40;;;20.80;68.40;;;;;;5061857;28;20224;-80
2023/06/07 04:59:00;;;;;;;10.57;5.00;;;21.00;69.20;;;;;;5064235;28;20305;-80
2023/06/07 05:01:55;;;;;;;10.02;5.18;;;21.20;68.50;;;;;;5061408;28;20224;-80
2023/06/07 05:04:44;;;;;;;15.32;4.85;;;21.10;68.50;;;;;;5050069;28;20232;-80
2023/06/07 05:07:36;;;;;;;10.35;4.40;;;21.20;68.20;;;;;;5033154;28;20802;-80
2023/06/07 05:10:27;;;;;;;8.05;4.80;;;21.40;68.20;;;;;;5037689;28;20212;-79
2023/06/07 05:13:20;;;;;;;9.02;4.28;;;21.60;68.00;;;;;;5052230;28;20277;-79
2023/06/07 05:16:16;;;;;;;8.43;4.28;;;21.50;68.20;;;;;;5049020;28;20668;-80
2023/06/07 05:19:07;;;;;;;11.25;4.75;;;21.50;66.60;;;;;;5047758;28;20248;-80
2023/06/07 05:21:59;;;;;;;10.73;4.57;;;21.70;67.00;;;;;;5058041;28;20231;-80
2023/06/07 05:24:49;;;;;;;13.23;4.50;;;21.60;67.70;;;;;;5060910;28;20226;-81
2023/06/07 05:27:40;;;;;;;7.43;4.50;;;21.70;67.70;;;;;;5056798;28;20231;-80
2023/06/07 05:30:29;;;;;;;12.18;5.38;;;21.80;67.60;;;;;;5064567;28;20231;-80
2023/06/07 05:33:19;;;;;;;13.10;5.10;;;22.10;67.20;;;;;;5062502;28;20239;-80
2023/06/07 05:36:10;;;;;;;10.80;4.85;;;22.30;66.70;;;;;;5051346;28;20672;-80
2023/06/07 05:39:01;;;;;;;12.35;5.05;;;22.20;67.30;;;;;;5035470;28;20224;-80
2023/06/07 05:41:52;;;;;;;12.65;5.00;;;22.30;67.60;;;;;;5044757;28;20350;-79
2023/06/07 05:44:41;;;;;;;11.20;4.80;;;22.60;67.00;;;;;;5052852;28;20357;-79
2023/06/07 05:47:30;;;;;;;15.25;5.15;;;22.70;67.00;;;;;;5049468;28;20329;-80
2023/06/07 05:50:20;;;;;;;10.27;5.20;;;22.60;67.10;;;;;;5067509;28;20282;-80
2023/06/07 05:53:10;;;;;;;9.90;4.95;;;22.70;66.90;;;;;;5052832;28;20234;-81
2023/06/07 05:55:59;;;;;;;17.80;5.10;;;22.40;67.00;;;;;;5051716;28;20221;-81
2023/06/07 05:58:50;;;;;;;11.93;4.82;;;22.60;68.10;;;;;;5067843;28;20231;-80
2023/06/07 06:01:40;;;;;;;13.63;5.05;;;22.60;68.10;;;;;;5066599;28;20224;-80
2023/06/07 06:04:29;;;;;;;11.45;5.25;;;22.60;68.60;;;;;;5068260;28;20223;-81
2023/06/07 06:07:19;;;;;;;10.48;4.78;;;22.60;67.90;;;;;;5047183;28;20212;-80
2023/06/07 06:10:09;;;;;;;10.57;4.75;;;22.50;68.00;;;;;;5056659;28;20810;-81
2023/06/07 06:12:58;;;;;;;8.52;4.82;;;22.50;67.40;;;;;;5078975;28;20223;-81
2023/06/07 06:15:48;;;;;;;9.73;4.78;;;22.50;67.50;;;;;;5066827;28;20302;-81
2023/06/07 06:18:37;;;;;;;11.48;5.20;;;22.70;67.30;;;;;;5047778;28;20259;-81
2023/06/07 06:21:25;;;;;;;12.05;4.50;;;22.70;67.20;;;;;;5074584;28;20231;-81
2023/06/07 06:24:14;;;;;;;7.65;4.20;;;22.70;67.40;;;;;;5054702;28;20599;-81
2023/06/07 06:27:06;;;;;;;9.85;4.40;;;22.70;67.50;;;;;;5068013;28;20300;-80
2023/06/07 06:29:54;;;;;;;9.38;4.43;;;22.90;67.40;;;;;;5048988;28;20223;-81
2023/06/07 06:32:45;;;;;;;8.73;4.65;;;23.30;67.30;;;;;;5066437;28;20223;-81
2023/06/07 06:35:34;;;;;;;6.60;4.38;;;23.40;67.20;;;;;;5051635;28;20738;-80
2023/06/07 06:38:23;;;;;;;10.57;3.90;;;23.30;66.50;;;;;;5066765;28;20226;-80
2023/06/07 06:41:15;;;;;;;13.00;4.80;;;23.20;66.60;;;;;;5076220;28;20238;-81
2023/06/07 06:44:04;;;;;;;12.73;4.00;;;23.50;67.00;;;;;;5048076;28;20267;-82
2023/06/07 06:46:53;;;;;;;9.10;4.38;;;23.80;65.80;;;;;;5059843;28;20230;-80
2023/06/07 06:49:44;;;;;;;10.82;4.60;;;24.10;65.50;;;;;;5058066;28;20366;-79
2023/06/07 06:52:33;;;;;;;11.55;4.40;;;24.20;64.40;;;;;;5058508;28;20278;-80
2023/06/07 06:55:22;;;;;;;6.75;4.47;;;24.20;64.70;;;;;;5052647;28;20732;-77
2023/06/07 06:58:11;;;;;;;6.63;4.18;;;24.20;65.00;;;;;;5059165;28;20269;-81
2023/06/07 07:01:03;;;;;;;9.98;4.72;;;24.40;64.20;;;;;;5055730;28;20228;-80
2023/06/07 07:03:52;;;;;;;12.15;4.82;;;24.40;65.10;;;;;;5060341;28;20216;-81
2023/06/07 07:06:42;;;;;;;10.63;5.25;;;24.50;64.40;;;;;;5061644;28;20217;-79
2023/06/07 07:09:32;;;;;;;11.80;4.93;;;25.00;64.00;;;;;;5059790;28;20264;-80
2023/06/07 07:12:21;;;;;;;18.88;5.22;;;26.00;64.20;;;;;;5078400;28;20242;-79
2023/06/07 07:15:10;;;;;;;11.82;4.88;;;26.00;61.90;;;;;;5078807;28;20788;-82
2023/06/07 07:17:59;;;;;;;7.97;4.80;;;25.80;62.20;;;;;;5064785;28;20232;-79
2023/06/07 07:20:48;;;;;;;10.38;5.05;;;25.60;62.50;;;;;;5051225;28;20231;-82
2023/06/07 07:23:38;;;;;;;7.97;4.43;;;25.50;61.90;;;;;;5041269;28;20233;-81
2023/06/07 07:26:27;;;;;;;9.88;4.65;;;25.90;62.30;;;;;;5055012;28;20231;-80
2023/06/07 07:29:16;;;;;;;11.18;5.30;;;26.00;60.50;;;;;;5058817;28;20262;-79
2023/06/07 07:32:06;;;;;;;13.98;5.00;;;26.60;61.70;;;;;;5050711;28;20247;-82
2023/06/07 07:34:54;;;;;;;12.60;5.53;;;27.20;61.10;;;;;;5057119;28;20232;-81
2023/06/07 07:37:44;;;;;;;11.05;4.70;;;27.70;59.60;;;;;;5064506;28;20227;-79
2023/06/07 07:40:34;;;;;;;11.30;5.28;;;28.30;58.20;;;;;;5071007;28;20235;-83
2023/06/07 07:43:23;;;;;;;8.10;4.88;;;28.90;57.40;;;;;;5064354;28;20253;-79
2023/06/07 07:46:13;;;;;;;11.30;5.03;;;28.90;57.40;;;;;;5071400;28;20227;-80
2023/06/07 07:49:02;;;;;;;7.03;5.00;;;28.80;57.40;;;;;;5050426;28;20241;-81
2023/06/07 07:51:51;;;;;;;12.98;5.50;;;28.90;56.70;;;;;;5074298;28;20230;-79
2023/06/07 07:54:40;;;;;;;11.98;5.50;;;29.80;57.30;;;;;;5062055;28;20220;-80
2023/06/07 07:57:32;;;;;;;9.13;5.18;;;29.70;56.20;;;;;;5073965;28;20220;-80
2023/06/07 08:00:23;;;;;;;12.30;5.30;;;29.80;55.90;;;;;;5067094;28;20247;-80
2023/06/07 08:03:12;;;;;;;9.45;5.20;;;30.30;56.10;;;;;;5080533;28;20223;-80
2023/06/07 08:06:03;;;;;;;9.90;5.05;;;30.10;56.00;;;;;;5063537;28;20303;-81
2023/06/07 08:08:52;;;;;;;7.68;5.47;;;29.50;55.40;;;;;;5057804;28;20231;-81
2023/06/07 08:11:41;;;;;;;15.85;5.22;;;29.90;56.10;;;;;;5066631;28;20230;-81
2023/06/07 08:14:31;;;;;;;9.07;4.93;;;30.70;54.50;;;;;;5064415;28;20361;-81
2023/06/07 08:17:20;;;;;;;8.18;5.35;;;30.90;54.80;;;;;;5080881;28;20215;-81
2023/06/07 08:20:11;;;;;;;15.40;5.88;;;30.90;54.90;;;;;;5070857;28;20227;-81
2023/06/07 08:23:00;;;;;;;9.75;5.35;;;31.40;54.10;;;;;;5062106;28;20246;-81
2023/06/07 08:25:49;;;;;;;11.93;5.55;;;31.80;53.00;;;;;;5054752;28;20228;-81
2023/06/07 08:28:38;;;;;;;9.30;5.32;;;32.20;53.40;;;;;;5055295;28;20645;-81
2023/06/07 08:31:28;;;;;;;8.23;5.38;;;32.20;52.00;;;;;;5058905;28;20227;-81
2023/06/07 08:34:19;;;;;;;8.40;5.18;;;32.00;52.00;;;;;;5066841;28;20214;-81
2023/06/07 08:37:08;;;;;;;9.13;5.35;;;31.90;52.20;;;;;;5063197;28;20247;-81
2023/06/07 08:39:57;;;;;;;7.80;5.13;;;31.70;52.10;;;;;;5067352;28;20227;-81
2023/06/07 08:42:49;;;;;;;7.40;4.97;;;32.00;53.60;;;;;;5067333;28;20810;-83
2023/06/07 08:45:38;;;;;;;14.57;5.38;;;32.10;52.30;;;;;;5039807;28;20294;-83
2023/06/07 08:48:33;;;;;;;8.68;4.68;;;32.40;51.90;;;;;;5050805;28;20381;-81
2023/06/07 08:51:23;;;;;;;11.77;5.10;;;32.90;52.20;;;;;;5063419;28;20252;-77
2023/06/07 08:54:18;;;;;;;11.60;4.70;;;32.40;50.40;;;;;;5063896;28;20986;-81
2023/06/07 08:57:06;;;;;;;12.30;4.75;;;32.50;51.40;;;;;;5070035;28;20220;-81
2023/06/07 08:59:56;;;;;;;9.65;4.63;;;32.40;50.80;;;;;;5085737;28;20365;-82
2023/06/07 09:02:45;;;;;;;11.70;4.47;;;33.20;50.80;;;;;;5086171;28;20859;-82
2023/06/07 09:05:35;;;;;;;10.55;3.80;;;31.90;48.00;;;;;;5076653;28;20272;-82
2023/06/07 09:08:24;;;;;;;7.35;3.55;;;32.60;46.10;;;;;;5069713;28;20302;-81
2023/06/07 09:11:14;;;;;;;6.82;3.67;;;31.90;45.50;;;;;;5062479;28;20239;-82
2023/06/07 09:14:03;;;;;;;7.30;3.95;;;31.90;47.10;;;;;;5078747;28;20766;-82
2023/06/07 09:16:55;;;;;;;6.10;3.25;;;31.20;47.00;;;;;;5083200;28;20648;-81
2023/06/07 09:19:44;;;;;;;5.75;3.67;;;31.00;47.20;;;;;;5071715;28;20598;-80
2023/06/07 09:22:35;;;;;;;6.93;3.92;;;31.10;46.80;;;;;;5084901;28;21028;-82
2023/06/07 09:25:24;;;;;;;8.48;3.83;;;31.10;47.80;;;;;;5053056;28;20224;-82
2023/06/07 09:28:14;;;;;;;10.00;4.15;;;31.50;46.90;;;;;;5057152;28;20232;-79
2023/06/07 09:31:04;;;;;;;10.82;3.97;;;32.00;47.40;;;;;;5071221;28;20215;-82
2023/06/07 09:33:53;;;;;;;8.38;4.13;;;32.40;46.50;;;;;;5051865;28;20288;-83
2023/06/07 09:36:49;;;;;;;5.63;3.50;;;33.10;47.00;;;;;;5047298;28;20238;-84
2023/06/07 09:39:40;;;;;;;6.43;3.95;;;32.00;46.10;;;;;;5041513;28;20362;-84
2023/06/07 09:42:29;;;;;;;10.48;3.88;;;30.90;46.90;;;;;;5041491;28;20220;-82
2023/06/07 09:45:19;;;;;;;7.78;3.88;;;29.60;48.00;;;;;;5048793;28;20330;-82
2023/06/07 09:48:09;;;;;;;7.00;3.70;;;31.60;49.10;;;;;;5063502;28;20759;-82
2023/06/07 09:50:59;;;;;;;5.07;3.50;;;32.90;47.30;;;;;;5068508;28;20225;-82
2023/06/07 09:53:52;;;;;;;14.00;4.28;;;31.20;48.00;;;;;;5057320;28;20218;-83
2023/06/07 09:56:42;;;;;;;6.47;3.80;;;30.40;49.60;;;;;;5081928;28;20215;-82
2023/06/07 09:59:31;;;;;;;6.50;4.43;;;29.40;50.30;;;;;;5062263;28;20242;-84
2023/06/07 10:02:25;;;;;;;7.50;4.00;;;29.00;51.60;;;;;;5061373;28;20235;-82
2023/06/07 10:05:15;;;;;;;6.53;4.22;;;28.80;53.40;;;;;;5061954;28;21025;-82
2023/06/07 10:08:05;;;;;;;12.20;4.32;;;30.90;51.40;;;;;;5068542;28;20223;-82
2023/06/07 10:10:55;;;;;;;10.10;4.28;;;29.90;50.60;;;;;;5050015;28;20713;-81
2023/06/07 10:13:48;;;;;;;8.20;4.18;;;28.90;50.90;;;;;;5083134;28;20770;-82
2023/06/07 10:16:38;;;;;;;12.90;4.47;;;28.60;51.80;;;;;;5061684;28;20305;-82
2023/06/07 10:19:30;;;;;;;7.78;4.25;;;28.20;53.80;;;;;;5064115;28;20658;-82
2023/06/07 10:22:25;;;;;;;22.88;4.65;;;28.20;54.40;;;;;;5075638;28;20227;-82
2023/06/07 10:25:17;;;;;;;16.67;4.97;;;28.20;56.10;;;;;;5060428;28;20289;-81
2023/06/07 10:28:15;;;;;;;6.50;4.07;;;28.30;54.80;;;;;;5063719;28;20219;-83
2023/06/07 10:31:08;;;;;;;6.75;3.80;;;29.80;51.60;;;;;;5049738;28;20219;-81
2023/06/07 10:33:59;;;;;;;10.50;4.32;;;34.50;48.50;;;;;;5067399;28;20226;-83
2023/06/07 10:36:48;;;;;;;7.57;4.07;;;36.90;47.50;;;;;;5066852;28;20234;-82
2023/06/07 10:39:39;;;;;;;8.00;4.20;;;39.80;44.50;;;;;;5058842;28;20819;-83
2023/06/07 10:42:27;;;;;;;14.68;3.70;;;40.90;43.50;;;;;;5043036;28;20223;-80
2023/06/07 10:45:19;;;;;;;9.80;3.50;;;42.50;40.90;;;;;;5086040;28;20215;-83
2023/06/07 10:48:35;;;;;;;7.10;3.42;;;43.80;39.90;;;;;;5075186;28;20219;-84
2023/06/07 10:52:02;;;;;;;7.97;3.70;;;43.60;38.00;;;;;;5062691;28;20269;-84
2023/06/07 10:54:51;;;;;;;7.07;3.85;;;43.40;39.00;;;;;;5055173;28;20228;-82
2023/06/07 10:57:41;;;;;;;6.53;3.08;;;44.60;38.40;;;;;;5046287;28;20369;-84
2023/06/07 11:00:31;;;;;;;7.60;3.05;;;44.90;37.30;;;;;;5074687;28;20227;-84
2023/06/07 11:03:43;;;;;;;9.90;2.60;;;45.30;36.60;;;;;;5061961;28;20637;-84
2023/06/07 11:06:33;;;;;;;10.82;3.28;;;44.40;36.90;;;;;;5053982;28;20219;-85
2023/06/07 11:09:25;;;;;;;6.10;2.95;;;44.00;36.60;;;;;;5071298;28;20793;-81
2023/06/07 11:12:54;;;;;;;10.38;3.47;;;39.20;38.00;;;;;;5081334;28;20888;-84
2023/06/07 11:15:43;;;;;;;6.45;3.55;;;37.90;41.50;;;;;;5064408;28;20223;-83
2023/06/07 11:18:56;;;;;;;10.63;3.42;;;39.80;40.20;;;;;;5063461;28;20491;-84
2023/06/07 11:22:07;;;;;;;9.88;3.58;;;41.40;38.10;;;;;;5067727;28;20223;-84
2023/06/07 11:25:12;;;;;;;14.25;3.70;;;38.10;40.20;;;;;;5058975;28;20725;-84
2023/06/07 11:28:01;;;;;;;9.07;3.67;;;36.20;43.20;;;;;;5072385;28;20313;-83
2023/06/07 11:30:51;;;;;;;8.82;4.18;;;35.70;43.90;;;;;;5059267;28;20220;-83
2023/06/07 11:33:42;;;;;;;7.32;3.83;;;39.30;42.60;;;;;;5048431;28;20225;-85
2023/06/07 11:36:33;;;;;;;9.70;4.05;;;37.50;43.10;;;;;;5052665;28;20223;-83
2023/06/07 11:39:33;;;;;;;7.28;3.80;;;38.50;43.00;;;;;;5046531;28;20212;-83
2023/06/07 11:42:25;;;;;;;10.48;3.88;;;43.00;40.00;;;;;;5077740;28;20231;-83
2023/06/07 11:45:14;;;;;;;7.30;3.72;;;39.20;39.70;;;;;;5078674;28;20296;-84
2023/06/07 11:48:03;;;;;;;12.75;4.10;;;36.70;43.30;;;;;;5069585;28;20219;-83
2023/06/07 11:50:52;;;;;;;6.40;3.28;;;37.50;45.20;;;;;;5059985;28;20224;-83
2023/06/07 11:53:42;;;;;;;7.57;4.00;;;42.50;41.00;;;;;;5079561;28;20219;-84
2023/06/07 11:56:37;;;;;;;5.18;3.67;;;44.90;39.40;;;;;;5067199;28;20316;-83
2023/06/07 11:59:27;;;;;;;8.02;4.07;;;47.90;36.80;;;;;;5057746;28;20645;-83
2023/06/07 12:02:16;;;;;;;8.50;4.07;;;47.80;36.20;;;;;;5084942;28;20689;-83
2023/06/07 12:05:07;;;;;;;5.80;3.50;;;48.70;35.10;;;;;;5038170;28;20568;-81
2023/06/07 12:07:56;;;;;;;5.82;3.60;;;42.50;36.20;;;;;;5055142;28;20905;-83
2023/06/07 12:10:54;;;;;;;4.75;3.40;;;37.90;40.40;;;;;;5065665;28;20643;-82
2023/06/07 12:13:43;;;;;;;7.68;3.50;;;36.10;44.30;;;;;;5063215;28;20273;-82
2023/06/07 12:16:32;;;;;;;10.18;4.05;;;34.70;45.30;;;;;;5056305;28;20223;-81
2023/06/07 12:19:21;;;;;;;5.75;3.42;;;33.30;46.80;;;;;;5058017;28;20219;-81
2023/06/07 12:22:10;;;;;;;16.58;4.43;;;32.30;48.90;;;;;;5061777;28;20226;-82
2023/06/07 12:25:07;;;;;;;6.88;4.15;;;31.60;51.00;;;;;;5067641;28;20769;-82
2023/06/07 12:27:58;;;;;;;7.65;4.40;;;31.00;55.90;;;;;;5058730;28;20920;-81
2023/06/07 12:30:48;;;;;;;5.45;4.40;;;30.60;55.80;;;;;;5055451;28;20224;-80
2023/06/07 12:33:37;;;;;;;7.82;4.13;;;30.30;55.00;;;;;;5071741;28;20227;-78
2023/06/07 12:36:29;;;;;;;8.30;4.30;;;30.00;57.30;;;;;;5079082;28;20216;-80
2023/06/07 12:39:22;;;;;;;5.85;4.72;;;29.90;56.00;;;;;;5078744;28;20256;-80
2023/06/07 12:42:11;;;;;;;7.22;4.30;;;29.60;53.60;;;;;;5070381;28;20220;-83
2023/06/07 12:45:01;;;;;;;8.15;4.32;;;29.50;53.20;;;;;;5071663;28;20219;-82
2023/06/07 12:47:51;;;;;;;7.07;4.30;;;29.70;54.10;;;;;;5069380;28;20216;-82
2023/06/07 12:50:40;;;;;;;7.55;4.38;;;30.10;53.40;;;;;;5062961;28;20220;-81
2023/06/07 12:53:29;;;;;;;15.43;11.00;;;30.40;53.60;;;;;;5062854;28;20204;-81
2023/06/07 12:56:19;;;;;;;71.35;38.15;;;30.30;53.60;;;;;;5062104;28;20219;-80
2023/06/07 12:59:08;;;;;;;26.05;8.30;;;30.40;53.10;;;;;;5053159;28;20221;-80
2023/06/07 13:02:01;;;;;;;10.95;5.00;;;29.90;57.70;;;;;;5059711;28;20319;-81
2023/06/07 13:04:50;;;;;;;11.50;5.10;;;28.40;62.80;;;;;;5046994;28;20282;-79
2023/06/07 13:07:39;;;;;;;10.68;4.50;;;27.60;63.70;;;;;;5038020;28;20603;-80
2023/06/07 13:10:28;;;;;;;7.65;4.90;;;27.40;63.80;;;;;;5062815;28;20219;-80
2023/06/07 13:13:17;;;;;;;8.57;4.65;;;27.20;63.70;;;;;;5057250;28;20243;-80
2023/06/07 13:16:06;;;;;;;5.20;4.47;;;27.10;63.40;;;;;;5059908;28;20381;-80
2023/06/07 13:18:58;;;;;;;6.22;4.10;;;27.00;64.70;;;;;;5060551;28;20231;-81
2023/06/07 13:21:47;;;;;;;4.82;4.05;;;27.10;62.20;;;;;;5055069;28;20231;-80
2023/06/07 13:24:36;;;;;;;6.40;3.97;;;26.90;60.20;;;;;;5058281;28;20305;-80
2023/06/07 13:27:26;;;;;;;11.57;4.63;;;27.10;61.30;;;;;;5057165;28;20348;-80
2023/06/07 13:30:16;;;;;;;5.13;4.35;;;27.10;60.50;;;;;;5064885;28;20839;-80
2023/06/07 13:33:16;;;;;;;17.08;5.07;;;27.10;59.10;;;;;;5053297;28;20220;-80
2023/06/07 13:36:07;;;;;;;12.98;4.00;;;27.40;60.60;;;;;;5046278;28;20224;-80
2023/06/07 13:38:56;;;;;;;5.93;3.83;;;27.60;59.30;;;;;;5053572;28;20315;-83
2023/06/07 13:41:45;;;;;;;6.78;3.55;;;27.60;58.00;;;;;;5059997;28;20223;-80
2023/06/07 13:44:34;;;;;;;10.20;4.30;;;27.70;59.20;;;;;;5058509;28;20397;-80
2023/06/07 13:47:23;;;;;;;4.78;3.70;;;27.70;57.90;;;;;;5063194;28;20307;-80
2023/06/07 13:50:12;;;;;;;11.80;4.05;;;27.70;58.10;;;;;;5061461;28;20303;-81
2023/06/07 13:53:03;;;;;;;8.05;4.07;;;27.70;57.50;;;;;;5044513;28;20215;-80
2023/06/07 13:55:52;;;;;;;10.95;3.88;;;27.60;59.30;;;;;;5051300;28;20831;-80
2023/06/07 13:58:41;;;;;;;10.77;4.30;;;27.60;56.90;;;;;;5034829;28;20398;-81
2023/06/07 14:01:31;;;;;;;8.35;4.32;;;27.70;59.70;;;;;;5040232;28;20312;-80
2023/06/07 14:04:21;;;;;;;7.28;3.92;;;27.80;58.80;;;;;;5038760;28;20225;-81
2023/06/07 14:07:10;;;;;;;7.28;4.07;;;27.90;57.10;;;;;;5040415;28;20285;-81
2023/06/07 14:10:01;;;;;;;6.60;4.30;;;28.00;56.20;;;;;;5049945;28;20699;-81
2023/06/07 14:12:49;;;;;;;6.13;3.97;;;27.90;56.30;;;;;;5040582;28;20260;-82
2023/06/07 14:15:38;;;;;;;7.60;4.05;;;28.00;56.30;;;;;;5054463;28;20226;-79
2023/06/07 14:18:27;;;;;;;7.00;3.80;;;27.80;56.40;;;;;;5045606;28;20249;-80
2023/06/07 14:21:16;;;;;;;8.63;4.07;;;27.60;56.50;;;;;;5047754;28;20694;-80
2023/06/07 14:24:06;;;;;;;5.18;4.13;;;27.60;57.00;;;;;;5026492;28;20351;-80
2023/06/07 14:26:56;;;;;;;8.52;4.40;;;27.70;57.20;;;;;;5037349;28;20243;-82
2023/06/07 14:29:45;;;;;;;8.25;3.97;;;27.70;57.70;;;;;;5043085;28;20250;-81
2023/06/07 14:32:34;;;;;;;4.40;3.90;;;27.60;58.10;;;;;;5046001;28;20250;-80
2023/06/07 14:35:23;;;;;;;10.82;4.05;;;27.60;58.80;;;;;;5051638;28;20247;-80
2023/06/07 14:38:12;;;;;;;6.55;4.32;;;27.40;60.30;;;;;;5039078;28;20278;-81
2023/06/07 14:41:01;;;;;;;4.88;3.72;;;27.40;61.30;;;;;;5035115;28;20220;-81
2023/06/07 14:43:53;;;;;;;5.15;4.28;;;27.20;61.90;;;;;;5040283;28;20220;-80
2023/06/07 14:46:41;;;;;;;7.13;3.63;;;27.10;61.30;;;;;;5033112;28;20298;-80